Time;durP1;ratioP1;P1;durP2;ratioP2;P2;SDS_P1;SDS_P2;PMS_P1;PMS_P2;Temp;Humidity;BMP_temperature;BMP_pressure;BME280_temperature;BME280_humidity;BME280_pressure;Samples;Min_cycle;Max_cycle;Signal;HPM_P1;HPM_P2
2021/10/03 00:01:21;;;;;;;4.78;4.28;;;;;;;15.11;64.27;94772.72;5037057;28;20698;-77
2021/10/03 00:03:48;;;;;;;4.63;3.90;;;;;;;15.12;63.83;94775.13;5053303;28;20181;-77
2021/10/03 00:06:14;;;;;;;4.75;4.25;;;;;;;15.15;63.78;94772.13;5053629;28;20177;-77
2021/10/03 00:08:40;;;;;;;4.93;4.27;;;;;;;15.17;63.35;94767.50;5070145;28;20300;-77
2021/10/03 00:11:06;;;;;;;5.23;4.50;;;;;;;15.17;63.23;94764.06;5053331;28;20256;-77
2021/10/03 00:13:33;;;;;;;4.87;3.90;;;;;;;15.15;62.32;94772.13;5053146;28;20632;-76
2021/10/03 00:16:00;;;;;;;4.23;3.73;;;;;;;15.19;62.43;94772.53;5070439;28;20656;-77
2021/10/03 00:18:26;;;;;;;6.40;3.97;;;;;;;15.15;62.38;94766.09;5053413;28;20669;-76
2021/10/03 00:20:52;;;;;;;4.77;3.70;;;;;;;15.18;62.06;94770.91;5036841;28;20196;-76
2021/10/03 00:23:18;;;;;;;5.23;4.30;;;;;;;15.21;61.62;94762.69;5054161;28;20189;-76
2021/10/03 00:25:43;;;;;;;5.07;3.75;;;;;;;15.24;60.86;94765.72;5036080;28;20525;-77
2021/10/03 00:28:08;;;;;;;5.77;3.57;;;;;;;15.29;60.18;94762.53;5070426;28;20232;-76
2021/10/03 00:30:35;;;;;;;3.80;3.50;;;;;;;15.35;59.12;94761.72;5053122;28;20240;-77
2021/10/03 00:33:01;;;;;;;4.50;3.40;;;;;;;15.43;58.62;94758.94;5053491;28;20536;-76
2021/10/03 00:35:26;;;;;;;5.87;3.33;;;;;;;15.47;58.04;94756.75;5063591;28;20264;-77
2021/10/03 00:37:52;;;;;;;5.60;3.33;;;;;;;15.43;58.22;94756.31;5033345;28;20209;-77
2021/10/03 00:40:17;;;;;;;4.10;2.93;;;;;;;15.47;57.69;94756.75;5033832;28;20278;-76
2021/10/03 00:42:43;;;;;;;3.40;3.10;;;;;;;15.54;57.07;94749.72;5031328;28;20216;-76
2021/10/03 00:45:11;;;;;;;3.70;3.33;;;;;;;15.53;57.17;94753.34;5049706;28;20277;-77
2021/10/03 00:47:36;;;;;;;3.50;3.17;;;;;;;15.52;57.26;94746.50;5048483;28;20201;-77
2021/10/03 00:50:03;;;;;;;4.28;3.17;;;;;;;15.52;57.22;94744.69;5033607;28;20209;-76
2021/10/03 00:52:29;;;;;;;3.20;2.90;;;;;;;15.56;56.98;94734.63;5075769;28;20188;-76
2021/10/03 00:54:54;;;;;;;3.30;3.00;;;;;;;15.68;56.28;94735.69;5058300;28;20241;-76
2021/10/03 00:57:19;;;;;;;3.40;3.00;;;;;;;15.66;56.46;94727.25;5033077;28;20290;-76
2021/10/03 00:59:45;;;;;;;6.80;3.00;;;;;;;15.59;56.32;94732.41;5033180;28;20184;-76
2021/10/03 01:02:10;;;;;;;3.43;3.03;;;;;;;15.62;56.34;94712.91;5017634;28;20189;-76
2021/10/03 01:04:35;;;;;;;4.15;3.35;;;;;;;15.59;56.18;94703.63;5050687;28;20175;-77
2021/10/03 01:07:01;;;;;;;4.00;3.10;;;;;;;15.49;56.57;94711.06;5051745;28;20265;-77
2021/10/03 01:09:26;;;;;;;3.17;2.87;;;;;;;15.47;56.92;94704.44;5049832;28;20210;-76
2021/10/03 01:11:52;;;;;;;2.97;2.70;;;;;;;15.48;56.78;94704.22;5050967;28;20178;-77
2021/10/03 01:14:18;;;;;;;4.72;3.30;;;;;;;15.41;56.86;94711.25;5051037;28;20174;-76
2021/10/03 01:16:44;;;;;;;4.27;3.70;;;;;;;15.42;57.36;94706.81;5050411;28;20206;-77
2021/10/03 01:19:10;;;;;;;4.07;3.20;;;;;;;15.42;57.56;94707.63;5050062;28;20174;-77
2021/10/03 01:21:35;;;;;;;4.00;3.10;;;;;;;15.41;57.69;94702.59;5033510;28;20194;-77
2021/10/03 01:24:00;;;;;;;3.80;3.30;;;;;;;15.46;57.88;94692.31;5035626;28;20181;-77
2021/10/03 01:26:28;;;;;;;4.17;3.50;;;;;;;15.45;57.83;94686.28;5035773;28;20260;-77
2021/10/03 01:28:53;;;;;;;4.78;3.13;;;;;;;15.33;58.37;94689.69;5055598;28;20197;-78
2021/10/03 01:31:24;;;;;;;2.80;2.60;;;;;;;15.37;58.40;94691.72;5053755;28;20263;-77
2021/10/03 01:33:49;;;;;;;4.05;3.60;;;;;;;15.40;58.25;94693.94;5055248;28;20185;-77
2021/10/03 01:36:15;;;;;;;3.87;3.47;;;;;;;15.36;58.34;94694.53;5054781;28;20174;-77
2021/10/03 01:38:41;;;;;;;3.53;2.97;;;;;;;15.33;58.55;94690.50;5036462;28;20276;-77
2021/10/03 01:41:06;;;;;;;5.50;3.37;;;;;;;15.32;58.21;94685.47;5037086;28;20201;-76
2021/10/03 01:43:32;;;;;;;4.07;3.67;;;;;;;15.28;58.24;94688.50;5052803;28;20189;-77
2021/10/03 01:45:58;;;;;;;3.77;3.47;;;;;;;15.28;58.55;94693.72;5036827;28;20544;-75
2021/10/03 01:48:24;;;;;;;4.10;3.30;;;;;;;15.22;58.49;94693.69;5052565;28;20194;-76
2021/10/03 01:50:56;;;;;;;3.90;3.43;;;;;;;15.20;58.59;94672.97;5054018;28;20469;-77
2021/10/03 01:53:24;;;;;;;3.63;3.33;;;;;;;15.16;58.83;94669.13;5053050;28;20273;-76
2021/10/03 01:55:50;;;;;;;4.40;3.50;;;;;;;15.20;58.52;94669.56;5053513;28;20196;-77
2021/10/03 01:58:17;;;;;;;3.77;3.43;;;;;;;15.19;58.60;94666.09;5053058;28;20198;-77
2021/10/03 02:00:44;;;;;;;3.37;3.07;;;;;;;15.23;58.65;94671.75;5052729;28;20323;-76
2021/10/03 02:03:11;;;;;;;4.47;3.70;;;;;;;15.07;59.43;94672.13;5052923;28;20181;-76
2021/10/03 02:05:41;;;;;;;3.83;3.40;;;;;;;15.13;58.56;94663.50;5068622;28;20186;-77
2021/10/03 02:08:08;;;;;;;5.70;3.57;;;;;;;15.13;58.93;94668.72;5052688;28;20673;-77
2021/10/03 02:10:34;;;;;;;4.03;3.60;;;;;;;15.10;59.23;94667.28;5035885;28;20214;-77
2021/10/03 02:13:00;;;;;;;5.43;3.93;;;;;;;15.08;59.11;94666.69;5052917;28;20174;-76
2021/10/03 02:15:25;;;;;;;3.87;3.47;;;;;;;15.04;59.28;94654.22;5036696;28;20177;-77
2021/10/03 02:17:50;;;;;;;4.93;3.70;;;;;;;14.97;59.47;94655.00;5037818;28;20197;-77
2021/10/03 02:20:17;;;;;;;4.57;3.97;;;;;;;15.00;59.69;94659.81;5038630;28;20357;-77
2021/10/03 02:22:43;;;;;;;3.97;3.40;;;;;;;15.04;59.70;94646.38;5054336;28;20228;-77
2021/10/03 02:25:09;;;;;;;4.47;3.33;;;;;;;15.01;59.99;94655.38;5053487;28;20181;-78
2021/10/03 02:27:34;;;;;;;4.10;3.70;;;;;;;15.04;60.02;94654.22;5054572;28;20252;-77
2021/10/03 02:30:00;;;;;;;4.40;3.37;;;;;;;15.06;59.96;94639.94;5038618;28;20293;-76
2021/10/03 02:32:25;;;;;;;4.13;3.73;;;;;;;14.98;60.69;94640.91;5054911;28;20174;-77
2021/10/03 02:34:51;;;;;;;4.93;3.87;;;;;;;15.01;60.72;94635.28;5037406;28;20544;-76
2021/10/03 02:37:16;;;;;;;3.83;3.53;;;;;;;14.99;60.99;94637.28;5038334;28;20209;-77
2021/10/03 02:39:42;;;;;;;4.53;3.77;;;;;;;14.97;61.18;94646.34;5053602;28;20180;-77
2021/10/03 02:42:07;;;;;;;5.30;4.10;;;;;;;14.95;61.40;94635.28;5054195;28;20193;-77
2021/10/03 02:44:33;;;;;;;5.73;3.93;;;;;;;15.00;61.26;94632.88;5037148;28;20595;-78
2021/10/03 02:46:58;;;;;;;6.90;3.67;;;;;;;14.97;61.29;94638.50;5054239;28;20209;-77
2021/10/03 02:49:23;;;;;;;5.43;4.60;;;;;;;15.00;61.51;94632.88;5038371;28;20257;-77
2021/10/03 02:51:50;;;;;;;4.87;3.97;;;;;;;15.00;61.25;94627.63;5055871;28;20188;-77
2021/10/03 02:54:15;;;;;;;4.05;3.65;;;;;;;14.92;61.63;94633.03;5054352;28;20205;-78
2021/10/03 02:56:41;;;;;;;4.78;3.95;;;;;;;14.89;61.70;94631.63;5037805;28;20201;-77
2021/10/03 02:59:06;;;;;;;4.60;4.07;;;;;;;14.90;61.79;94625.41;5056335;28;20626;-77
2021/10/03 03:01:31;;;;;;;4.50;4.10;;;;;;;14.97;61.71;94621.00;5055792;28;20653;-77
2021/10/03 03:03:57;;;;;;;4.57;3.80;;;;;;;14.89;61.89;94630.81;5055009;28;20377;-77
2021/10/03 03:06:22;;;;;;;7.00;4.20;;;;;;;14.85;61.81;94617.34;5037716;28;20185;-77
2021/10/03 03:08:47;;;;;;;5.30;3.97;;;;;;;14.91;61.72;94620.97;5053973;28;20649;-78
2021/10/03 03:11:14;;;;;;;4.63;4.03;;;;;;;14.92;61.69;94615.53;5038954;28;20196;-78
2021/10/03 03:13:39;;;;;;;4.83;4.10;;;;;;;14.90;61.71;94621.97;5053932;28;20178;-78
2021/10/03 03:16:04;;;;;;;5.90;4.17;;;;;;;14.83;61.63;94621.16;5038182;28;20181;-77
2021/10/03 03:18:30;;;;;;;5.13;3.80;;;;;;;14.84;61.71;94618.38;5053444;28;20212;-77
2021/10/03 03:20:55;;;;;;;4.33;3.90;;;;;;;14.76;62.07;94620.34;5055639;28;20212;-77
2021/10/03 03:23:21;;;;;;;4.17;3.77;;;;;;;14.74;62.09;94612.66;5037466;28;20185;-78
2021/10/03 03:25:46;;;;;;;4.10;3.70;;;;;;;14.79;61.75;94612.09;5053113;28;20224;-77
2021/10/03 03:28:11;;;;;;;4.53;4.13;;;;;;;14.73;61.99;94611.06;5037986;28;20221;-77
2021/10/03 03:30:37;;;;;;;5.47;3.90;;;;;;;14.66;62.12;94612.84;5037591;28;20209;-78
2021/10/03 03:33:03;;;;;;;4.07;3.67;;;;;;;14.55;62.76;94614.22;5055548;28;20185;-78
2021/10/03 03:35:28;;;;;;;4.30;3.87;;;;;;;14.54;63.14;94604.75;5053236;28;20173;-77
2021/10/03 03:37:53;;;;;;;5.23;3.80;;;;;;;14.62;62.97;94603.78;5054051;28;20776;-77
2021/10/03 03:40:19;;;;;;;5.13;3.73;;;;;;;14.61;62.92;94610.84;5035222;28;20170;-77
2021/10/03 03:42:45;;;;;;;5.03;4.17;;;;;;;14.60;63.26;94614.44;5035056;28;20228;-77
2021/10/03 03:45:11;;;;;;;4.83;4.27;;;;;;;14.65;62.99;94608.63;5035172;28;20177;-77
2021/10/03 03:47:37;;;;;;;5.40;3.88;;;;;;;14.57;63.54;94608.78;5053359;28;20209;-76
2021/10/03 03:50:05;;;;;;;4.50;3.57;;;;;;;14.49;63.78;94609.78;5051187;28;20213;-77
2021/10/03 03:52:31;;;;;;;4.57;3.90;;;;;;;14.54;63.63;94604.75;5051585;28;20229;-77
2021/10/03 03:54:56;;;;;;;7.33;4.50;;;;;;;14.52;64.02;94590.28;5034631;28;20174;-77
2021/10/03 03:57:21;;;;;;;5.60;4.43;;;;;;;14.51;64.18;94586.88;5035321;28;20259;-77
2021/10/03 03:59:46;;;;;;;4.83;4.30;;;;;;;14.62;64.06;94588.13;5052425;28;20634;-77
2021/10/03 04:02:12;;;;;;;4.50;3.80;;;;;;;14.52;64.34;94590.28;5035024;28;20190;-77
2021/10/03 04:04:37;;;;;;;5.90;3.77;;;;;;;14.62;64.29;94580.28;5034879;28;20264;-77
2021/10/03 04:07:03;;;;;;;4.53;4.13;;;;;;;14.65;64.07;94579.88;5036476;28;20201;-77
2021/10/03 04:09:29;;;;;;;5.90;4.93;;;;;;;14.57;64.53;94583.47;5035850;28;20304;-77
2021/10/03 04:11:54;;;;;;;4.87;4.37;;;;;;;14.53;64.74;94584.06;5036566;28;20220;-78
2021/10/03 04:14:19;;;;;;;5.07;4.30;;;;;;;14.54;64.41;94577.84;5037533;28;20200;-77
2021/10/03 04:16:45;;;;;;;4.43;3.93;;;;;;;14.59;64.63;94578.06;5037286;28;20201;-77
2021/10/03 04:19:10;;;;;;;5.07;4.53;;;;;;;14.63;64.50;94568.81;5036640;28;20197;-77
2021/10/03 04:21:35;;;;;;;6.00;5.17;;;;;;;14.55;64.87;94571.59;5035735;28;20185;-77
2021/10/03 04:24:00;;;;;;;6.60;4.80;;;;;;;14.55;64.59;94566.38;5035763;28;20175;-78
2021/10/03 04:26:28;;;;;;;5.77;4.37;;;;;;;14.62;64.75;94562.78;5036136;28;20249;-77
2021/10/03 04:28:53;;;;;;;5.70;4.50;;;;;;;14.62;64.80;94564.59;5052062;28;20237;-77
2021/10/03 04:31:19;;;;;;;5.30;4.47;;;;;;;14.59;64.68;94559.78;5036202;28;20205;-78
2021/10/03 04:33:44;;;;;;;4.43;4.03;;;;;;;14.61;64.85;94565.59;5035505;28;20209;-78
2021/10/03 04:36:10;;;;;;;7.77;4.87;;;;;;;14.67;64.57;94564.84;5036058;28;20243;-77
2021/10/03 04:38:36;;;;;;;5.23;4.10;;;;;;;14.58;64.98;94569.44;5052502;28;20189;-77
2021/10/03 04:41:02;;;;;;;5.80;4.20;;;;;;;14.67;64.71;94567.44;5052333;28;20212;-78
2021/10/03 04:43:27;;;;;;;6.13;4.80;;;;;;;14.63;64.61;94561.00;5052130;28;20604;-78
2021/10/03 04:45:52;;;;;;;4.83;4.33;;;;;;;14.66;64.85;94556.16;5035345;28;20178;-77
2021/10/03 04:48:18;;;;;;;5.80;4.77;;;;;;;14.67;64.67;94557.00;5052255;28;20185;-77
2021/10/03 04:50:43;;;;;;;5.67;4.27;;;;;;;14.60;65.20;94553.56;5051705;28;20210;-78
2021/10/03 04:53:08;;;;;;;6.17;4.90;;;;;;;14.60;65.08;94558.78;5053669;28;20239;-77
2021/10/03 04:55:34;;;;;;;5.10;4.50;;;;;;;14.60;65.37;94558.78;5051143;28;20189;-78
2021/10/03 04:57:59;;;;;;;4.90;4.40;;;;;;;14.60;65.28;94556.16;5035420;28;20198;-77
2021/10/03 05:00:24;;;;;;;5.73;4.73;;;;;;;14.59;65.33;94560.59;5035945;28;20181;-78
2021/10/03 05:02:50;;;;;;;4.63;4.13;;;;;;;14.59;65.27;94551.94;5056143;28;20374;-78
2021/10/03 05:05:15;;;;;;;5.30;4.67;;;;;;;14.61;65.42;94549.94;5039798;28;20166;-78
2021/10/03 05:07:40;;;;;;;5.80;4.80;;;;;;;14.58;65.22;94550.34;5038482;28;20205;-77
2021/10/03 05:10:06;;;;;;;5.10;4.60;;;;;;;14.54;65.04;94549.91;5056105;28;20275;-78
2021/10/03 05:12:31;;;;;;;5.00;4.50;;;;;;;14.58;65.34;94552.94;5056118;28;20224;-77
2021/10/03 05:14:57;;;;;;;6.10;4.77;;;;;;;14.57;65.54;94540.84;5037261;28;20201;-77
2021/10/03 05:17:22;;;;;;;6.33;4.60;;;;;;;14.59;65.39;94547.53;5038317;28;20704;-77
2021/10/03 05:19:48;;;;;;;4.80;4.23;;;;;;;14.64;65.39;94544.31;5037596;28;20173;-77
2021/10/03 05:22:13;;;;;;;4.83;4.40;;;;;;;14.66;65.07;94537.06;5037783;28;20208;-77
2021/10/03 05:24:38;;;;;;;6.63;4.83;;;;;;;14.68;64.91;94541.13;5038020;28;20276;-78
2021/10/03 05:27:04;;;;;;;7.70;5.03;;;;;;;14.80;64.53;94543.16;5037338;28;20691;-78
2021/10/03 05:29:29;;;;;;;5.53;4.80;;;;;;;14.78;64.02;94540.72;5056719;28;20248;-78
2021/10/03 05:31:54;;;;;;;6.37;4.67;;;;;;;14.78;64.32;94543.34;5039683;28;20174;-78
2021/10/03 05:34:20;;;;;;;6.00;5.40;;;;;;;14.84;64.13;94533.88;5055505;28;20550;-78
2021/10/03 05:36:45;;;;;;;6.37;4.70;;;;;;;14.86;64.22;94530.09;5055245;28;20539;-78
2021/10/03 05:39:10;;;;;;;6.80;5.00;;;;;;;14.94;63.83;94537.75;5057148;28;20170;-78
2021/10/03 05:41:36;;;;;;;5.20;4.70;;;;;;;15.00;63.71;94543.97;5056434;28;20185;-77
2021/10/03 05:44:01;;;;;;;6.27;5.07;;;;;;;15.00;63.78;94539.56;5056471;28;20186;-77
2021/10/03 05:46:27;;;;;;;5.93;5.20;;;;;;;15.05;63.23;94532.94;5039517;28;20539;-77
2021/10/03 05:48:52;;;;;;;6.63;5.10;;;;;;;15.09;63.34;94541.97;5055273;28;20209;-77
2021/10/03 05:51:17;;;;;;;5.30;4.65;;;;;;;15.15;63.22;94538.56;5056753;28;20622;-78
2021/10/03 05:53:43;;;;;;;4.93;4.40;;;;;;;15.22;63.01;94542.00;5055864;28;20232;-78
2021/10/03 05:56:09;;;;;;;5.53;5.03;;;;;;;15.26;62.76;94533.53;5057281;28;20170;-77
2021/10/03 05:58:34;;;;;;;5.53;4.83;;;;;;;15.25;62.84;94541.59;5041079;28;20210;-79
2021/10/03 06:01:00;;;;;;;5.30;4.80;;;;;;;15.33;62.59;94532.75;5040909;28;20243;-78
2021/10/03 06:03:26;;;;;;;5.95;4.95;;;;;;;15.37;62.67;94534.78;5041163;28;20212;-78
2021/10/03 06:05:51;;;;;;;7.40;5.10;;;;;;;15.42;62.21;94539.38;5040796;28;20672;-79
2021/10/03 06:08:16;;;;;;;5.37;4.60;;;;;;;15.45;62.18;94539.78;5040818;28;20221;-78
2021/10/03 06:10:43;;;;;;;8.20;5.10;;;;;;;15.45;62.22;94550.25;5040607;28;20232;-78
2021/10/03 06:13:08;;;;;;;4.78;4.38;;;;;;;15.45;62.33;94550.25;5058498;28;20194;-79
2021/10/03 06:15:34;;;;;;;6.57;4.88;;;;;;;15.55;62.06;94553.28;5055270;28;20188;-78
2021/10/03 06:18:00;;;;;;;5.82;4.82;;;;;;;15.64;61.55;94553.13;5056482;28;20672;-78
2021/10/03 06:20:25;;;;;;;8.63;5.43;;;;;;;15.74;61.32;94550.88;5040405;28;20261;-78
2021/10/03 06:22:51;;;;;;;6.18;5.07;;;;;;;15.75;61.32;94558.53;5040265;28;20182;-79
2021/10/03 06:25:17;;;;;;;5.80;5.10;;;;;;;15.77;61.22;94566.16;5055070;28;20193;-78
2021/10/03 06:27:43;;;;;;;5.38;4.88;;;;;;;15.81;61.15;94557.72;5038232;28;20248;-78
2021/10/03 06:30:09;;;;;;;6.10;5.22;;;;;;;15.82;60.84;94553.28;5053945;28;20208;-78
2021/10/03 06:32:34;;;;;;;5.32;4.60;;;;;;;15.74;61.61;94559.53;5054202;28;20615;-79
2021/10/03 06:34:59;;;;;;;5.75;4.90;;;;;;;15.80;61.49;94560.53;5055931;28;20182;-78
2021/10/03 06:37:25;;;;;;;5.55;4.97;;;;;;;15.76;61.72;94549.66;5039623;28;20201;-78
2021/10/03 06:39:50;;;;;;;6.68;4.72;;;;;;;15.85;61.07;94552.88;5057948;28;20231;-76
2021/10/03 06:42:15;;;;;;;5.95;4.90;;;;;;;15.83;61.38;94554.91;5041278;28;20253;-76
2021/10/03 06:44:41;;;;;;;7.95;4.88;;;;;;;15.85;60.92;94564.16;5038424;28;20205;-78
2021/10/03 06:47:09;;;;;;;5.77;4.87;;;;;;;15.85;61.03;94547.63;5055138;28;20276;-78
2021/10/03 06:49:35;;;;;;;6.40;4.97;;;;;;;15.89;60.96;94559.28;5054926;28;20209;-78
2021/10/03 06:52:01;;;;;;;4.50;4.10;;;;;;;15.99;60.71;94558.88;5053849;28;20572;-78
2021/10/03 06:54:26;;;;;;;5.88;4.97;;;;;;;15.96;60.75;94556.66;5069385;28;20188;-79
2021/10/03 06:56:52;;;;;;;5.65;4.22;;;;;;;15.97;60.79;94556.47;5055451;28;20279;-78
2021/10/03 06:59:17;;;;;;;6.38;5.00;;;;;;;15.99;60.15;94557.09;5056168;28;20263;-78
2021/10/03 07:01:43;;;;;;;6.03;4.72;;;;;;;16.02;60.59;94564.53;5056604;28;20188;-78
2021/10/03 07:04:08;;;;;;;7.30;5.30;;;;;;;16.01;60.48;94572.59;5055395;28;20185;-77
2021/10/03 07:06:34;;;;;;;6.60;5.10;;;;;;;16.05;60.31;94563.31;5056725;28;20239;-78
2021/10/03 07:08:59;;;;;;;6.20;5.15;;;;;;;16.11;59.94;94573.75;5073644;28;20255;-78
2021/10/03 07:11:24;;;;;;;5.60;4.70;;;;;;;16.12;60.33;94567.50;5056419;28;20223;-76
2021/10/03 07:13:50;;;;;;;7.35;4.85;;;;;;;16.10;60.11;94577.41;5071522;28;20216;-77
2021/10/03 07:16:17;;;;;;;7.65;4.88;;;;;;;16.13;60.56;94586.66;5071955;28;20269;-77
2021/10/03 07:18:42;;;;;;;7.70;4.85;;;;;;;16.14;59.81;94578.59;5037989;28;20235;-75
2021/10/03 07:21:08;;;;;;;6.88;5.00;;;;;;;16.10;59.97;94580.03;5054150;28;20189;-77
2021/10/03 07:23:33;;;;;;;6.57;4.70;;;;;;;16.09;60.30;94580.22;5053828;28;20310;-75
2021/10/03 07:25:58;;;;;;;7.97;4.53;;;;;;;16.10;59.78;94574.78;5071759;28;20578;-75
2021/10/03 07:28:24;;;;;;;5.18;4.68;;;;;;;16.17;60.43;94593.09;5054469;28;20260;-77
2021/10/03 07:30:50;;;;;;;6.85;5.07;;;;;;;16.18;60.40;94591.28;5072152;28;20201;-77
2021/10/03 07:33:18;;;;;;;5.10;4.60;;;;;;;16.34;59.70;94589.03;5071673;28;20616;-77
2021/10/03 07:35:43;;;;;;;5.63;4.63;;;;;;;16.49;59.38;94578.28;5071731;28;20269;-77
2021/10/03 07:38:08;;;;;;;5.32;4.80;;;;;;;16.49;58.97;94591.38;5035774;28;20292;-77
2021/10/03 07:40:34;;;;;;;6.55;4.22;;;;;;;16.58;58.78;94595.38;5038288;28;20244;-77
2021/10/03 07:42:59;;;;;;;6.30;5.05;;;;;;;16.64;58.99;94594.56;5072434;28;20686;-76
2021/10/03 07:45:24;;;;;;;5.55;4.78;;;;;;;16.80;58.07;94588.06;5055091;28;20192;-78
2021/10/03 07:47:49;;;;;;;4.30;3.90;;;;;;;16.87;57.94;94582.78;5073932;28;20193;-77
2021/10/03 07:50:15;;;;;;;5.95;5.35;;;;;;;16.96;57.91;94592.00;5055718;28;20197;-76
2021/10/03 07:52:40;;;;;;;5.13;4.40;;;;;;;16.86;57.79;94587.22;5038741;28;20184;-77
2021/10/03 07:55:06;;;;;;;5.20;4.50;;;;;;;16.75;58.20;94584.47;5055326;28;20173;-77
2021/10/03 07:57:31;;;;;;;4.97;4.38;;;;;;;16.80;57.90;94582.03;5072283;28;20209;-77
2021/10/03 07:59:57;;;;;;;4.70;4.10;;;;;;;16.79;57.38;94575.19;5052824;28;20169;-77
2021/10/03 08:02:22;;;;;;;8.73;4.95;;;;;;;16.66;57.67;94584.66;5036915;28;20601;-77
2021/10/03 08:04:47;;;;;;;8.35;4.40;;;;;;;16.65;58.22;94585.69;5056705;28;20174;-76
2021/10/03 08:07:12;;;;;;;4.88;4.40;;;;;;;16.61;58.22;94576.63;5052782;28;20219;-77
2021/10/03 08:09:38;;;;;;;5.95;4.60;;;;;;;16.61;58.18;94578.47;5018729;28;20209;-78
2021/10/03 08:12:03;;;;;;;6.60;4.57;;;;;;;16.65;58.02;94580.44;5040549;28;20185;-77
2021/10/03 08:14:29;;;;;;;7.32;4.70;;;;;;;16.65;58.44;94583.06;5028952;28;20190;-79
2021/10/03 08:16:54;;;;;;;6.18;4.65;;;;;;;16.68;58.23;94594.94;5062425;28;20198;-77
2021/10/03 08:19:19;;;;;;;6.78;4.53;;;;;;;16.74;57.64;94588.09;5041895;28;20189;-78
2021/10/03 08:21:45;;;;;;;4.55;4.15;;;;;;;16.79;57.92;94590.91;5042056;28;20184;-77
2021/10/03 08:24:10;;;;;;;5.75;4.00;;;;;;;16.84;56.97;94580.59;5060187;28;20215;-77
2021/10/03 08:26:35;;;;;;;6.45;4.70;;;;;;;16.96;56.63;94587.59;5061414;28;20196;-79
2021/10/03 08:29:01;;;;;;;6.50;4.30;;;;;;;16.87;57.13;94593.25;5039963;28;20205;-77
2021/10/03 08:31:26;;;;;;;5.28;4.13;;;;;;;16.94;56.98;94584.34;5033935;28;20174;-77
2021/10/03 08:33:51;;;;;;;5.88;4.40;;;;;;;16.96;56.74;94586.75;5032936;28;20178;-78
2021/10/03 08:36:16;;;;;;;4.28;3.85;;;;;;;16.99;56.41;94589.78;5033609;28;20170;-76
2021/10/03 08:38:42;;;;;;;5.72;4.05;;;;;;;17.07;56.14;94580.88;5056128;28;20642;-77
2021/10/03 08:41:07;;;;;;;5.57;3.97;;;;;;;17.14;56.06;94593.94;5021616;28;20212;-78
2021/10/03 08:43:33;;;;;;;4.60;4.20;;;;;;;17.19;55.84;94581.78;5021481;28;20182;-78
2021/10/03 08:45:59;;;;;;;5.05;3.75;;;;;;;17.20;55.42;94585.22;5038369;28;20181;-77
2021/10/03 08:48:25;;;;;;;4.35;3.92;;;;;;;17.22;55.69;94591.06;5038214;28;20212;-76
2021/10/03 08:50:51;;;;;;;5.75;3.90;;;;;;;17.08;56.30;94595.59;5038114;28;20201;-77
2021/10/03 08:53:17;;;;;;;4.22;3.75;;;;;;;17.17;56.26;94593.53;5037726;28;20185;-78
2021/10/03 08:55:44;;;;;;;4.22;3.83;;;;;;;17.23;54.98;94597.94;5037892;28;20177;-78
2021/10/03 08:58:09;;;;;;;4.57;3.80;;;;;;;17.26;55.61;94594.88;5038510;28;20319;-79
2021/10/03 09:00:44;;;;;;;3.97;3.45;;;;;;;17.28;55.57;94592.84;5039682;28;20256;-79
2021/10/03 09:03:09;;;;;;;5.07;3.83;;;;;;;17.25;55.60;94586.22;5022779;28;20197;-79
2021/10/03 09:05:39;;;;;;;5.13;3.47;;;;;;;17.26;55.07;94590.44;5039021;28;20722;-80
2021/10/03 09:08:11;;;;;;;6.38;3.67;;;;;;;17.36;55.20;94602.28;5024122;28;20197;-78
2021/10/03 09:10:55;;;;;;;4.18;3.78;;;;;;;17.40;55.50;94590.31;5039651;28;20209;-79
2021/10/03 09:13:31;;;;;;;4.63;3.85;;;;;;;17.38;55.72;94587.91;5072910;28;20667;-79
2021/10/03 09:16:04;;;;;;;4.05;3.65;;;;;;;17.42;54.60;94586.50;5059447;28;20640;-79
2021/10/03 09:18:56;;;;;;;3.97;3.25;;;;;;;17.49;54.78;94597.75;5059537;28;20588;-78
2021/10/03 09:21:31;;;;;;;3.60;3.30;;;;;;;17.54;54.18;94595.28;5056001;28;20569;-78
2021/10/03 09:24:01;;;;;;;3.30;3.00;;;;;;;17.66;54.30;94597.19;5057692;28;20265;-77
2021/10/03 09:26:27;;;;;;;4.15;3.75;;;;;;;17.62;53.81;94607.34;5059340;28;20186;-79
2021/10/03 09:28:52;;;;;;;5.38;3.80;;;;;;;17.73;53.37;94608.50;5058615;28;20675;-79
2021/10/03 09:31:18;;;;;;;7.07;4.63;;;;;;;17.75;53.34;94612.50;5069432;28;20603;-79
2021/10/03 09:33:48;;;;;;;6.28;4.53;;;;;;;17.70;53.82;94615.00;5051235;28;20192;-77
2021/10/03 09:36:17;;;;;;;3.53;3.22;;;;;;;17.71;53.61;94615.78;5084070;28;20173;-77
2021/10/03 09:38:48;;;;;;;5.40;4.32;;;;;;;17.74;53.91;94610.91;5057963;28;20196;-77
2021/10/03 09:41:14;;;;;;;7.47;4.63;;;;;;;17.68;53.71;94606.50;5057192;28;20222;-78
2021/10/03 09:43:43;;;;;;;6.32;4.53;;;;;;;17.72;54.70;94601.63;5075967;28;20596;-78
2021/10/03 09:46:10;;;;;;;4.30;3.90;;;;;;;17.66;54.79;94613.75;5057623;28;20185;-78
2021/10/03 09:48:46;;;;;;;5.30;4.15;;;;;;;17.70;55.00;94608.94;5074315;28;20203;-78
2021/10/03 09:51:13;;;;;;;4.55;3.47;;;;;;;17.77;54.99;94615.75;5071787;28;20174;-78
2021/10/03 09:53:39;;;;;;;3.97;3.67;;;;;;;17.84;54.65;94615.66;5041304;28;20177;-78
2021/10/03 09:56:04;;;;;;;4.13;3.72;;;;;;;17.83;55.16;94620.13;5052865;28;20663;-80
2021/10/03 09:58:30;;;;;;;3.60;3.30;;;;;;;17.91;54.35;94623.50;5075968;28;20199;-79
2021/10/03 10:00:55;;;;;;;4.25;3.85;;;;;;;17.90;54.22;94622.69;5055590;28;20209;-78
2021/10/03 10:03:21;;;;;;;6.35;3.55;;;;;;;17.91;53.91;94628.75;5047283;28;20217;-77
2021/10/03 10:05:48;;;;;;;3.78;3.47;;;;;;;17.97;53.42;94625.28;5038806;28;20181;-77
2021/10/03 10:08:13;;;;;;;3.55;3.25;;;;;;;18.03;53.96;94624.41;5055043;28;20237;-78
2021/10/03 10:10:38;;;;;;;3.65;3.35;;;;;;;18.08;53.83;94627.19;5055602;28;20699;-78
2021/10/03 10:13:10;;;;;;;3.83;3.05;;;;;;;18.17;53.56;94633.78;5045148;28;20198;-77
2021/10/03 10:15:35;;;;;;;4.07;3.67;;;;;;;18.37;53.15;94637.00;5035071;28;20724;-77
2021/10/03 10:18:21;;;;;;;4.22;3.30;;;;;;;18.57;52.67;94631.56;5034627;28;20201;-78
2021/10/03 10:20:47;;;;;;;4.65;3.50;;;;;;;18.60;52.31;94635.56;5051390;28;20197;-77
2021/10/03 10:23:15;;;;;;;3.70;3.15;;;;;;;18.60;53.12;94631.13;5054365;28;20223;-76
2021/10/03 10:25:42;;;;;;;3.72;3.22;;;;;;;18.63;52.59;94627.22;5038628;28;20556;-77
2021/10/03 10:28:15;;;;;;;4.97;3.78;;;;;;;18.52;52.32;94628.78;5040083;28;20201;-77
2021/10/03 10:31:13;;;;;;;3.65;3.30;;;;;;;18.58;52.76;94635.00;5076834;28;20212;-78
2021/10/03 10:33:51;;;;;;;3.97;3.58;;;;;;;18.54;53.06;94620.66;5060608;28;20173;-78
2021/10/03 10:36:23;;;;;;;3.53;3.17;;;;;;;18.52;52.62;94617.44;5077846;28;20623;-78
2021/10/03 10:39:06;;;;;;;4.68;3.20;;;;;;;18.70;52.26;94619.31;5058005;28;20194;-76
2021/10/03 10:41:38;;;;;;;3.30;3.00;;;;;;;18.73;51.70;94617.06;5070017;28;20786;-76
2021/10/03 10:44:28;;;;;;;3.78;3.10;;;;;;;18.70;51.62;94617.47;5053141;28;20197;-76
2021/10/03 10:46:58;;;;;;;3.55;3.25;;;;;;;18.87;51.97;94615.84;5073969;28;20747;-77
2021/10/03 10:49:28;;;;;;;4.25;3.20;;;;;;;18.95;50.94;94617.38;5042889;28;20730;-77
2021/10/03 10:52:24;;;;;;;4.85;3.03;;;;;;;18.87;51.61;94615.06;5059065;28;20173;-76
2021/10/03 10:55:01;;;;;;;4.47;2.90;;;;;;;18.79;51.97;94616.16;5059413;28;20185;-76
2021/10/03 10:57:53;;;;;;;5.03;3.78;;;;;;;18.77;52.19;94620.03;5076806;28;20200;-76
2021/10/03 11:00:20;;;;;;;4.82;3.10;;;;;;;18.83;51.40;94619.97;5077553;28;20198;-76
2021/10/03 11:02:53;;;;;;;4.60;3.05;;;;;;;18.74;51.39;94620.50;5060496;28;20169;-77
2021/10/03 11:05:34;;;;;;;3.47;3.13;;;;;;;18.63;51.69;94616.72;5059604;28;20701;-77
2021/10/03 11:08:25;;;;;;;4.93;2.80;;;;;;;18.77;51.17;94620.03;5077132;28;20192;-78
2021/10/03 11:11:00;;;;;;;4.68;3.33;;;;;;;18.79;50.70;94612.72;5028315;28;20228;-78
2021/10/03 11:13:38;;;;;;;3.38;3.08;;;;;;;18.70;51.20;94612.22;5057868;28;20222;-79
2021/10/03 11:16:33;;;;;;;5.43;2.90;;;;;;;18.63;51.10;94604.38;5076672;28;20219;-79
2021/10/03 11:19:11;;;;;;;3.25;2.95;;;;;;;18.69;51.57;94602.72;5025766;28;20272;-78
2021/10/03 11:21:40;;;;;;;3.85;3.00;;;;;;;18.61;51.83;94598.53;5042687;28;20181;-78
2021/10/03 11:24:08;;;;;;;3.25;2.95;;;;;;;18.58;51.78;94606.88;5076579;28;20636;-78
2021/10/03 11:27:07;;;;;;;4.47;2.97;;;;;;;18.78;51.50;94590.88;5042266;28;20189;-78
2021/10/03 11:29:52;;;;;;;3.80;3.50;;;;;;;18.82;51.19;94596.53;4961429;28;20216;-77
2021/10/03 11:32:27;;;;;;;3.63;3.05;;;;;;;18.94;51.77;94592.91;4994174;28;20230;-78
2021/10/03 11:35:01;;;;;;;5.20;3.75;;;;;;;19.19;51.09;94594.59;4962995;28;20183;-79